createdAt,value
2018-05-11T00:00:15.405Z,13.30
2018-05-11T00:02:43.019Z,13.20
2018-05-11T00:05:10.661Z,13.20
2018-05-11T00:07:38.442Z,13.20
2018-05-11T00:10:06.850Z,13.20
2018-05-11T00:12:35.395Z,13.10
2018-05-11T00:15:03.090Z,13.10
2018-05-11T00:17:30.685Z,13.10
2018-05-11T00:19:58.294Z,13.10
2018-05-11T00:22:25.862Z,13.20
2018-05-11T00:24:53.434Z,13.10
2018-05-11T00:27:21.022Z,13.10
2018-05-11T00:29:48.595Z,13.10
2018-05-11T00:32:16.192Z,13.10
2018-05-11T00:34:43.783Z,13.10
2018-05-11T00:37:11.446Z,13.10
2018-05-11T00:39:39.057Z,13.10
2018-05-11T00:42:06.665Z,13.20
2018-05-11T00:44:34.234Z,13.20
2018-05-11T00:47:01.821Z,13.30
2018-05-11T00:49:29.395Z,13.30
2018-05-11T00:51:56.985Z,13.40
2018-05-11T00:54:24.587Z,13.30
2018-05-11T00:56:52.986Z,13.50
2018-05-11T00:59:21.337Z,13.50
2018-05-11T01:01:49.074Z,13.50
2018-05-11T01:04:16.701Z,13.50
2018-05-11T01:06:45.538Z,13.40
2018-05-11T01:09:13.760Z,13.40
2018-05-11T01:11:41.399Z,13.30
2018-05-11T01:14:08.987Z,13.40
2018-05-11T01:16:36.550Z,13.40
2018-05-11T01:19:04.133Z,13.50
2018-05-11T01:21:31.700Z,13.60
2018-05-11T01:23:59.286Z,13.40
2018-05-11T01:26:26.850Z,13.30
2018-05-11T01:28:54.467Z,13.30
2018-05-11T01:31:22.078Z,13.20
2018-05-11T01:33:49.770Z,13.10
2018-05-11T01:36:17.542Z,13.10
2018-05-11T01:38:45.845Z,13.10
2018-05-11T01:41:13.593Z,13.20
2018-05-11T01:43:41.199Z,13.10
2018-05-11T01:46:08.801Z,13.10
2018-05-11T01:48:36.425Z,13.00
2018-05-11T01:51:03.993Z,13.10
2018-05-11T01:53:31.557Z,13.10
2018-05-11T01:55:59.155Z,13.10
2018-05-11T01:58:26.729Z,13.10
2018-05-11T02:00:54.349Z,13.10
2018-05-11T02:03:22.693Z,13.00
2018-05-11T02:05:50.298Z,12.90
2018-05-11T02:08:18.122Z,12.90
2018-05-11T02:10:45.958Z,13.00
2018-05-11T02:13:13.652Z,13.00
2018-05-11T02:15:42.026Z,12.90
2018-05-11T02:18:09.602Z,12.90
2018-05-11T02:20:37.197Z,12.80
2018-05-11T02:23:05.543Z,12.70
2018-05-11T02:25:33.146Z,12.70
2018-05-11T02:28:00.718Z,12.60
2018-05-11T02:30:28.285Z,12.60
2018-05-11T02:32:55.875Z,12.60
2018-05-11T02:35:23.480Z,12.60
2018-05-11T02:37:52.921Z,12.60
2018-05-11T02:40:20.599Z,12.50
2018-05-11T02:42:48.341Z,12.40
2018-05-11T02:45:16.479Z,12.40
2018-05-11T02:47:45.161Z,12.30
2018-05-11T02:50:12.774Z,12.30
2018-05-11T02:52:41.567Z,12.30
2018-05-11T02:55:09.134Z,12.20
2018-05-11T02:57:37.489Z,12.20
2018-05-11T03:00:05.046Z,12.20
2018-05-11T03:02:32.633Z,12.20
2018-05-11T03:05:00.198Z,12.20
2018-05-11T03:07:27.854Z,12.20
2018-05-11T03:09:55.435Z,12.20
2018-05-11T03:12:23.022Z,12.10
2018-05-11T03:14:50.658Z,12.20
2018-05-11T03:17:18.545Z,12.20
2018-05-11T03:19:46.209Z,12.10
2018-05-11T03:22:13.965Z,12.10
2018-05-11T03:24:41.632Z,12.20
2018-05-11T03:27:09.235Z,12.20
2018-05-11T03:29:36.832Z,12.10
2018-05-11T03:32:04.393Z,12.10
2018-05-11T03:34:31.978Z,12.10
2018-05-11T03:36:59.541Z,12.10
2018-05-11T03:39:27.127Z,12.10
2018-05-11T03:41:54.724Z,12.10
2018-05-11T03:44:22.334Z,12.00
2018-05-11T03:46:49.963Z,12.10
2018-05-11T03:49:17.625Z,12.00
2018-05-11T03:51:45.360Z,12.00
2018-05-11T03:54:13.883Z,12.00
2018-05-11T03:56:41.507Z,12.00
2018-05-11T03:59:09.071Z,12.00
2018-05-11T04:01:48.583Z,12.00
2018-05-11T04:04:28.062Z,11.90
2018-05-11T04:07:08.426Z,12.00
2018-05-11T04:09:35.995Z,11.90
2018-05-11T04:12:03.582Z,12.00
2018-05-11T04:14:32.154Z,12.00
2018-05-11T04:16:59.738Z,11.90
2018-05-11T04:19:27.305Z,11.90
2018-05-11T04:21:54.940Z,11.90
2018-05-11T04:24:23.348Z,11.90
2018-05-11T04:26:51.021Z,11.90
2018-05-11T04:29:18.782Z,11.90
2018-05-11T04:31:47.395Z,12.00
2018-05-11T04:34:15.287Z,11.90
2018-05-11T04:36:43.141Z,11.90
2018-05-11T04:39:11.645Z,12.10
2018-05-11T04:41:39.227Z,12.00
2018-05-11T04:44:06.807Z,12.10
2018-05-11T04:46:34.373Z,12.00
2018-05-11T04:49:01.950Z,11.90
2018-05-11T04:51:29.505Z,11.90
2018-05-11T04:53:57.850Z,11.70
2018-05-11T04:56:25.461Z,11.70
2018-05-11T04:58:53.861Z,11.80
2018-05-11T05:01:21.493Z,11.80
2018-05-11T05:03:49.226Z,11.80
2018-05-11T05:06:16.944Z,11.80
2018-05-11T05:08:45.467Z,11.80
2018-05-11T05:11:13.764Z,11.80
2018-05-11T05:13:41.405Z,11.90
2018-05-11T05:16:08.998Z,11.80
2018-05-11T05:18:36.562Z,11.80
2018-05-11T05:21:04.147Z,11.80
2018-05-11T05:23:31.705Z,11.70
2018-05-11T05:25:59.290Z,11.70
2018-05-11T05:28:27.003Z,11.80
2018-05-11T05:30:55.807Z,11.50
2018-05-11T05:33:23.396Z,11.50
2018-05-11T05:35:52.422Z,11.50
2018-05-11T05:38:20.010Z,11.40
2018-05-11T05:40:48.366Z,11.40
2018-05-11T05:43:15.925Z,11.40
2018-05-11T05:45:43.591Z,11.50
2018-05-11T05:48:11.094Z,11.60
2018-05-11T05:50:39.438Z,11.50
2018-05-11T05:53:07.777Z,11.60
2018-05-11T05:55:35.411Z,11.60
2018-05-11T05:58:03.050Z,11.70
2018-05-11T06:00:31.421Z,11.80
2018-05-11T06:02:59.210Z,11.80
2018-05-11T06:05:26.925Z,12.00
2018-05-11T06:07:54.552Z,12.20
2018-05-11T06:10:22.150Z,12.20
2018-05-11T06:12:50.488Z,12.10
2018-05-11T06:15:18.054Z,12.10
2018-05-11T06:17:45.697Z,12.10
2018-05-11T06:20:13.242Z,12.30
2018-05-11T06:22:40.828Z,12.20
2018-05-11T06:25:09.168Z,12.40
2018-05-11T06:27:36.831Z,12.40
2018-05-11T06:30:04.449Z,12.50
2018-05-11T06:32:32.064Z,12.40
2018-05-11T06:35:00.066Z,12.30
2018-05-11T06:37:27.994Z,12.30
2018-05-11T06:39:55.738Z,12.60
2018-05-11T06:42:23.345Z,12.70
2018-05-11T06:44:50.901Z,12.70
2018-05-11T06:47:18.489Z,12.80
2018-05-11T06:49:47.681Z,12.90
2018-05-11T06:52:15.271Z,12.90
2018-05-11T06:54:43.466Z,12.90
2018-05-11T06:57:11.822Z,13.00
2018-05-11T06:59:39.395Z,13.00
2018-05-11T07:02:07.151Z,13.20
2018-05-11T07:04:35.571Z,13.30
2018-05-11T07:07:04.013Z,13.30
2018-05-11T07:09:31.802Z,13.30
2018-05-11T07:11:59.759Z,13.40
2018-05-11T07:14:28.493Z,13.70
2018-05-11T07:16:57.149Z,13.70
2018-05-11T07:19:24.872Z,13.70
2018-05-11T07:21:52.585Z,13.70
2018-05-11T07:24:20.926Z,13.70
2018-05-11T07:26:48.502Z,13.70
2018-05-11T07:29:16.093Z,13.70
2018-05-11T07:31:43.662Z,13.70
2018-05-11T07:34:11.258Z,13.50
2018-05-11T07:36:38.875Z,13.50
2018-05-11T07:39:06.518Z,13.40
2018-05-11T07:41:34.200Z,13.60
2018-05-11T07:44:02.801Z,13.50
2018-05-11T07:46:31.370Z,13.20
2018-05-11T07:49:00.238Z,13.10
2018-05-11T07:51:29.310Z,13.10
2018-05-11T07:53:57.684Z,12.90
2018-05-11T07:56:26.462Z,12.80
2018-05-11T07:58:54.150Z,12.80
2018-05-11T08:01:21.712Z,12.80
2018-05-11T08:03:49.315Z,12.90
2018-05-11T08:06:16.897Z,12.90
2018-05-11T08:08:45.251Z,12.90
2018-05-11T08:11:12.826Z,12.90
2018-05-11T08:13:40.425Z,13.20
2018-05-11T08:16:08.771Z,13.50
2018-05-11T08:18:36.434Z,13.50
2018-05-11T08:21:04.833Z,13.80
2018-05-11T08:23:32.604Z,13.70
2018-05-11T08:26:01.511Z,13.80
2018-05-11T08:28:29.407Z,13.60
2018-05-11T08:30:58.877Z,13.70
2018-05-11T08:33:26.980Z,13.70
2018-05-11T08:35:57.284Z,14.40
2018-05-11T08:38:25.466Z,14.30
2018-05-11T08:40:53.108Z,14.40
2018-05-11T08:43:20.678Z,14.40
2018-05-11T08:45:48.257Z,14.40
2018-05-11T08:48:15.822Z,14.40
2018-05-11T08:50:43.410Z,14.60
2018-05-11T08:53:10.974Z,14.70
2018-05-11T08:55:38.582Z,15.00
2018-05-11T08:58:06.962Z,15.00
2018-05-11T09:00:35.681Z,15.20
2018-05-11T09:03:04.567Z,15.40
2018-05-11T09:05:32.311Z,15.30
2018-05-11T09:08:00.250Z,15.60
2018-05-11T09:10:28.407Z,15.70
2018-05-11T09:12:58.790Z,15.80
2018-05-11T09:15:26.979Z,15.80
2018-05-11T09:17:54.602Z,16.10
2018-05-11T09:20:22.330Z,16.20
2018-05-11T09:22:49.891Z,16.00
2018-05-11T09:25:17.477Z,15.70
2018-05-11T09:27:45.053Z,15.40
2018-05-11T09:30:12.821Z,15.50
2018-05-11T09:32:40.568Z,15.50
2018-05-11T09:35:08.257Z,15.60
2018-05-11T09:37:36.705Z,15.60
2018-05-11T09:40:04.376Z,15.60
2018-05-11T09:42:33.285Z,15.60
2018-05-11T09:45:03.055Z,15.60
2018-05-11T09:47:30.649Z,15.60
2018-05-11T09:49:59.090Z,15.70
2018-05-11T09:52:26.674Z,15.70
2018-05-11T09:54:55.272Z,15.80
2018-05-11T09:57:22.821Z,15.80
2018-05-11T09:59:50.389Z,15.80
2018-05-11T10:02:17.978Z,15.90
2018-05-11T10:04:46.305Z,15.90
2018-05-11T10:07:13.932Z,15.90
2018-05-11T10:09:42.447Z,16.10
2018-05-11T10:12:10.321Z,16.10
2018-05-11T10:14:38.228Z,16.20
2018-05-11T10:17:06.057Z,15.90
2018-05-11T10:19:33.677Z,15.70
2018-05-11T10:22:01.802Z,15.90
2018-05-11T10:24:29.390Z,15.90
2018-05-11T10:26:58.509Z,15.50
2018-05-11T10:29:26.107Z,15.50
2018-05-11T10:31:54.522Z,15.80
2018-05-11T10:34:23.027Z,16.00
2018-05-11T10:36:52.013Z,16.30
2018-05-11T10:39:20.066Z,16.30
2018-05-11T10:41:47.678Z,16.40
2018-05-11T10:44:15.242Z,16.40
2018-05-11T10:46:42.838Z,16.30
2018-05-11T10:49:10.418Z,16.30
2018-05-11T10:51:38.131Z,16.10
2018-05-11T10:54:06.653Z,15.80
2018-05-11T10:56:34.262Z,15.80
2018-05-11T10:59:02.317Z,15.80
2018-05-11T11:01:30.154Z,16.10
2018-05-11T11:03:58.141Z,16.20
2018-05-11T11:06:25.759Z,16.30
2018-05-11T11:08:53.350Z,16.40
2018-05-11T11:11:20.914Z,16.70
2018-05-11T11:13:48.497Z,17.00
2018-05-11T11:16:16.834Z,17.00
2018-05-11T11:18:44.418Z,16.90
2018-05-11T11:21:11.998Z,16.80
2018-05-11T11:23:39.627Z,16.80
2018-05-11T11:26:07.260Z,16.80
2018-05-11T11:28:34.923Z,16.80
2018-05-11T11:31:02.570Z,17.10
2018-05-11T11:33:30.395Z,17.20
2018-05-11T11:35:59.093Z,16.90
2018-05-11T11:38:26.881Z,16.80
2018-05-11T11:40:54.510Z,17.00
2018-05-11T11:43:22.111Z,17.00
2018-05-11T11:45:50.481Z,17.40
2018-05-11T11:48:18.111Z,17.40
2018-05-11T11:50:46.521Z,17.30
2018-05-11T11:53:14.193Z,17.20
2018-05-11T11:55:41.925Z,17.40
2018-05-11T11:58:09.743Z,17.30
2018-05-11T12:00:37.492Z,17.20
2018-05-11T12:03:05.114Z,17.20
2018-05-11T12:05:32.683Z,17.20
2018-05-11T12:08:00.294Z,17.40
2018-05-11T12:10:27.863Z,17.40
2018-05-11T12:12:56.201Z,17.40
2018-05-11T12:15:24.546Z,17.90
2018-05-11T12:17:52.106Z,17.80
2018-05-11T12:20:19.770Z,17.90
2018-05-11T12:22:47.432Z,17.90
2018-05-11T12:25:15.929Z,17.80
2018-05-11T12:27:43.581Z,17.80
2018-05-11T12:30:11.740Z,18.10
2018-05-11T12:32:40.250Z,18.10
2018-05-11T12:35:08.174Z,18.10
2018-05-11T12:37:36.647Z,18.90
2018-05-11T12:40:05.083Z,18.70
2018-05-11T12:42:32.646Z,18.70
2018-05-11T12:45:00.225Z,18.80
2018-05-11T12:47:27.788Z,18.70
2018-05-11T12:49:55.370Z,18.40
2018-05-11T12:52:22.937Z,18.50
2018-05-11T12:54:50.521Z,18.70
2018-05-11T12:57:18.137Z,19.10
2018-05-11T12:59:45.774Z,19.30
2018-05-11T13:02:13.657Z,19.40
2018-05-11T13:04:41.478Z,19.10
2018-05-11T13:07:10.234Z,19.10
2018-05-11T13:09:37.952Z,19.10
2018-05-11T13:12:06.381Z,18.80
2018-05-11T13:14:34.778Z,19.00
2018-05-11T13:17:02.344Z,19.00
2018-05-11T13:19:29.930Z,18.70
2018-05-11T13:21:57.494Z,18.60
2018-05-11T13:24:25.075Z,18.30
2018-05-11T13:26:53.425Z,18.10
2018-05-11T13:29:21.515Z,18.20
2018-05-11T13:31:49.133Z,18.40
2018-05-11T13:34:16.754Z,18.50
2018-05-11T13:36:44.877Z,18.60
2018-05-11T13:39:13.337Z,18.60
2018-05-11T13:41:41.187Z,18.50
2018-05-11T13:44:10.197Z,18.60
2018-05-11T13:46:38.210Z,18.70
2018-05-11T13:49:06.811Z,18.40
2018-05-11T13:51:35.333Z,18.50
2018-05-11T13:54:03.439Z,18.50
2018-05-11T13:56:31.969Z,18.60
2018-05-11T13:58:59.486Z,18.60
2018-05-11T14:01:27.076Z,18.60
2018-05-11T14:03:54.637Z,18.70
2018-05-11T14:06:22.223Z,18.70
2018-05-11T14:08:50.255Z,18.70
2018-05-11T14:11:17.895Z,18.20
2018-05-11T14:13:45.568Z,18.00
2018-05-11T14:16:13.230Z,18.20
2018-05-11T14:18:41.772Z,17.80
2018-05-11T14:21:09.624Z,17.80
2018-05-11T14:23:37.326Z,17.60
2018-05-11T14:26:05.759Z,17.50
2018-05-11T14:28:33.322Z,17.50
2018-05-11T14:31:00.910Z,17.40
2018-05-11T14:33:28.478Z,17.20
2018-05-11T14:35:56.685Z,17.40
2018-05-11T14:38:24.250Z,17.90
2018-05-11T14:40:51.845Z,18.20
2018-05-11T14:43:19.853Z,18.50
2018-05-11T14:45:47.477Z,18.70
2018-05-11T14:48:15.143Z,19.20
2018-05-11T14:50:43.028Z,19.70
2018-05-11T14:53:10.933Z,20.00
2018-05-11T14:55:39.652Z,20.70
2018-05-11T14:58:08.497Z,20.80
2018-05-11T15:00:36.130Z,20.80
2018-05-11T15:03:03.709Z,20.50
2018-05-11T15:05:31.275Z,20.40
2018-05-11T15:08:00.056Z,20.50
2018-05-11T15:10:28.383Z,20.60
2018-05-11T15:12:56.008Z,20.60
2018-05-11T15:15:23.557Z,21.10
2018-05-11T15:17:51.169Z,21.30
2018-05-11T15:20:18.770Z,21.80
2018-05-11T15:22:46.414Z,22.50
2018-05-11T15:25:14.146Z,22.80
2018-05-11T15:27:42.650Z,22.70
2018-05-11T15:30:10.578Z,22.70
2018-05-11T15:32:39.508Z,22.20
2018-05-11T15:35:08.181Z,20.50
2018-05-11T15:37:35.927Z,20.50
2018-05-11T15:40:03.490Z,19.50
2018-05-11T15:42:31.074Z,18.70
2018-05-11T15:44:58.642Z,18.60
2018-05-11T15:47:26.228Z,18.80
2018-05-11T15:49:54.559Z,18.80
2018-05-11T15:52:22.149Z,18.70
2018-05-11T15:54:49.770Z,18.80
2018-05-11T15:57:18.201Z,18.70
2018-05-11T15:59:45.824Z,18.70
2018-05-11T16:02:13.507Z,18.80
2018-05-11T16:04:41.935Z,18.50
2018-05-11T16:07:10.012Z,18.50
2018-05-11T16:09:38.861Z,19.50
2018-05-11T16:12:06.486Z,19.50
2018-05-11T16:14:34.173Z,19.80
2018-05-11T16:17:01.734Z,20.20
2018-05-11T16:19:29.313Z,20.50
2018-05-11T16:21:56.881Z,20.60
2018-05-11T16:24:24.491Z,20.60
2018-05-11T16:26:52.061Z,20.40
2018-05-11T16:29:19.713Z,20.30
2018-05-11T16:31:47.407Z,20.10
2018-05-11T16:34:15.229Z,19.80
2018-05-11T16:36:43.020Z,19.40
2018-05-11T16:39:11.988Z,19.20
2018-05-11T16:41:40.515Z,19.20
2018-05-11T16:44:08.394Z,19.20
2018-05-11T16:46:35.995Z,19.00
2018-05-11T16:49:03.585Z,18.90
2018-05-11T16:51:31.151Z,18.70
2018-05-11T16:53:58.737Z,18.90
2018-05-11T16:56:26.296Z,19.00
2018-05-11T16:58:53.886Z,18.90
2018-05-11T17:01:21.450Z,18.80
2018-05-11T17:03:49.094Z,18.70
2018-05-11T17:06:16.897Z,18.60
2018-05-11T17:08:44.533Z,18.50
2018-05-11T17:11:12.613Z,18.40
2018-05-11T17:13:41.024Z,18.30
2018-05-11T17:16:09.938Z,18.20
2018-05-11T17:18:38.321Z,18.20
2018-05-11T17:21:06.731Z,18.10
2018-05-11T17:23:34.418Z,18.10
2018-05-11T17:26:01.987Z,18.10
2018-05-11T17:28:29.593Z,18.10
2018-05-11T17:30:57.925Z,18.00
2018-05-11T17:33:25.514Z,18.00
2018-05-11T17:35:53.090Z,18.00
2018-05-11T17:38:21.301Z,17.90
2018-05-11T17:40:49.107Z,17.90
2018-05-11T17:43:16.758Z,17.90
2018-05-11T17:45:45.117Z,17.60
2018-05-11T17:48:12.929Z,17.60
2018-05-11T17:50:41.557Z,17.50
2018-05-11T17:53:09.554Z,17.50
2018-05-11T17:55:38.239Z,17.40
2018-05-11T17:58:05.978Z,17.40
2018-05-11T18:00:34.334Z,17.40
2018-05-11T18:03:01.899Z,17.40
2018-05-11T18:05:29.596Z,17.30
2018-05-11T18:07:57.166Z,17.40
2018-05-11T18:10:24.842Z,17.30
2018-05-11T18:12:52.488Z,17.30
2018-05-11T18:15:20.169Z,17.30
2018-05-11T18:17:47.911Z,17.20
2018-05-11T18:20:15.554Z,17.20
2018-05-11T18:22:43.401Z,17.20
2018-05-11T18:25:12.411Z,17.00
2018-05-11T18:27:40.576Z,17.00
2018-05-11T18:30:08.353Z,16.90
2018-05-11T18:32:35.961Z,16.80
2018-05-11T18:35:03.562Z,16.70
2018-05-11T18:37:31.898Z,16.60
2018-05-11T18:39:59.470Z,16.60
2018-05-11T18:42:27.053Z,16.60
2018-05-11T18:44:54.626Z,16.50
2018-05-11T18:47:22.331Z,16.30
2018-05-11T18:49:49.942Z,16.20
2018-05-11T18:52:17.602Z,16.10
2018-05-11T18:54:45.366Z,16.00
2018-05-11T18:57:12.950Z,16.00
2018-05-11T18:59:40.651Z,15.90
2018-05-11T19:02:08.414Z,15.70
2018-05-11T19:04:35.990Z,15.50
2018-05-11T19:07:03.573Z,15.40
2018-05-11T19:09:31.751Z,15.50
2018-05-11T19:11:59.337Z,15.50
2018-05-11T19:14:27.026Z,15.40
2018-05-11T19:16:54.684Z,15.30
2018-05-11T19:19:22.294Z,15.30
2018-05-11T19:21:49.877Z,15.20
2018-05-11T19:24:18.291Z,15.10
2018-05-11T19:26:45.945Z,15.10
2018-05-11T19:29:14.342Z,14.90
2018-05-11T19:31:42.050Z,14.90
2018-05-11T19:34:09.841Z,14.90
2018-05-11T19:36:39.178Z,14.80
2018-05-11T19:39:06.766Z,14.80
2018-05-11T19:41:34.462Z,14.80
2018-05-11T19:44:02.799Z,14.70
2018-05-11T19:46:30.381Z,14.70
2018-05-11T19:48:57.970Z,14.60
2018-05-11T19:51:25.578Z,14.60
2018-05-11T19:53:53.910Z,14.50
2018-05-11T19:56:21.514Z,14.40
2018-05-11T19:58:50.643Z,14.40
2018-05-11T20:01:18.237Z,14.30
2018-05-11T20:03:45.906Z,14.30
2018-05-11T20:06:14.270Z,14.40
2018-05-11T20:08:42.562Z,14.40
2018-05-11T20:11:13.497Z,14.40
2018-05-11T20:13:42.199Z,14.40
2018-05-11T20:16:10.801Z,14.30
2018-05-11T20:18:39.899Z,14.30
2018-05-11T20:21:08.894Z,14.30
2018-05-11T20:23:36.495Z,14.30
2018-05-11T20:26:04.398Z,14.30
2018-05-11T20:28:32.750Z,14.20
2018-05-11T20:31:00.322Z,14.20
2018-05-11T20:33:27.906Z,14.20
2018-05-11T20:35:55.484Z,14.10
2018-05-11T20:38:23.868Z,14.10
2018-05-11T20:40:51.442Z,14.10
2018-05-11T20:43:19.116Z,14.10
2018-05-11T20:45:46.823Z,14.10
2018-05-11T20:48:14.432Z,14.10
2018-05-11T20:50:42.060Z,14.10
2018-05-11T20:53:10.614Z,14.10
2018-05-11T20:55:38.270Z,14.10
2018-05-11T20:58:05.973Z,14.10
2018-05-11T21:00:35.759Z,14.10
2018-05-11T21:03:03.370Z,14.10
2018-05-11T21:05:31.043Z,14.10
2018-05-11T21:07:58.718Z,14.10
2018-05-11T21:10:26.294Z,14.00
2018-05-11T21:12:53.878Z,14.10
2018-05-11T21:15:21.445Z,14.10
2018-05-11T21:17:49.046Z,14.00
2018-05-11T21:20:17.558Z,14.00
2018-05-11T21:22:45.312Z,14.00
2018-05-11T21:25:13.341Z,14.00
2018-05-11T21:27:41.268Z,14.00
2018-05-11T21:30:09.087Z,14.00
2018-05-11T21:32:36.898Z,14.00
2018-05-11T21:35:05.286Z,13.90
2018-05-11T21:37:32.910Z,13.90
2018-05-11T21:40:00.567Z,13.90
2018-05-11T21:42:28.930Z,14.00
2018-05-11T21:44:56.606Z,13.90
2018-05-11T21:47:24.174Z,13.90
2018-05-11T21:49:51.762Z,13.90
2018-05-11T21:52:19.464Z,13.90
2018-05-11T21:54:47.062Z,13.90
2018-05-11T21:57:14.870Z,13.90
2018-05-11T21:59:43.539Z,13.90
2018-05-11T22:02:11.221Z,13.90
2018-05-11T22:04:39.421Z,13.90
2018-05-11T22:07:07.110Z,13.90
2018-05-11T22:09:39.078Z,13.80
2018-05-11T22:12:07.734Z,13.80
2018-05-11T22:14:36.182Z,13.80
2018-05-11T22:17:03.823Z,13.80
2018-05-11T22:19:31.410Z,13.70
2018-05-11T22:21:58.993Z,13.70
2018-05-11T22:24:26.581Z,13.80
2018-05-11T22:26:54.144Z,13.80
2018-05-11T22:29:21.734Z,13.80
2018-05-11T22:31:49.301Z,13.80
2018-05-11T22:34:16.890Z,13.80
2018-05-11T22:36:45.534Z,13.80
2018-05-11T22:39:13.195Z,13.80
2018-05-11T22:41:42.204Z,13.80
2018-05-11T22:44:09.852Z,13.80
2018-05-11T22:46:41.245Z,13.80
2018-05-11T22:49:08.966Z,13.70
2018-05-11T22:51:37.409Z,13.70
2018-05-11T22:54:05.809Z,13.70
2018-05-11T22:56:33.499Z,13.70
2018-05-11T22:59:01.717Z,13.70
2018-05-11T23:01:30.069Z,13.70
2018-05-11T23:03:57.646Z,13.70
2018-05-11T23:06:25.230Z,13.70
2018-05-11T23:08:52.801Z,13.70
2018-05-11T23:11:20.386Z,13.70
2018-05-11T23:13:48.073Z,13.70
2018-05-11T23:16:16.491Z,13.70
2018-05-11T23:18:44.119Z,13.60
2018-05-11T23:21:12.565Z,13.60
2018-05-11T23:23:40.282Z,13.50
2018-05-11T23:26:08.049Z,13.50
2018-05-11T23:28:36.440Z,13.60
2018-05-11T23:31:04.129Z,13.60
2018-05-11T23:33:31.806Z,13.70
2018-05-11T23:36:01.218Z,13.80
2018-05-11T23:38:28.785Z,13.70
2018-05-11T23:40:56.370Z,13.80
2018-05-11T23:43:23.935Z,13.80
2018-05-11T23:45:51.513Z,13.80
2018-05-11T23:48:19.133Z,13.80
2018-05-11T23:50:46.744Z,13.90
2018-05-11T23:53:14.417Z,13.90
2018-05-11T23:55:42.274Z,13.90
2018-05-11T23:58:09.943Z,14.00
